sensor_id;sensor_type;location;lat;lon;timestamp;P1;durP1;ratioP1;P2;durP2;ratioP2
46230;SDS011;31949;51.404;-0.038;2024-03-29T00:01:34;11.70;;;2.67;;
46230;SDS011;31949;51.404;-0.038;2024-03-29T00:04:00;19.10;;;4.10;;
46230;SDS011;31949;51.404;-0.038;2024-03-29T00:06:27;13.27;;;3.22;;
46230;SDS011;31949;51.404;-0.038;2024-03-29T00:08:53;12.18;;;3.22;;
46230;SDS011;31949;51.404;-0.038;2024-03-29T00:11:19;16.55;;;4.65;;
46230;SDS011;31949;51.404;-0.038;2024-03-29T00:13:45;12.95;;;3.50;;
46230;SDS011;31949;51.404;-0.038;2024-03-29T00:16:11;9.48;;;2.58;;
46230;SDS011;31949;51.404;-0.038;2024-03-29T00:18:37;20.98;;;4.00;;
46230;SDS011;31949;51.404;-0.038;2024-03-29T00:21:03;18.92;;;3.17;;
46230;SDS011;31949;51.404;-0.038;2024-03-29T00:23:30;13.13;;;2.55;;
46230;SDS011;31949;51.404;-0.038;2024-03-29T00:25:56;13.35;;;3.30;;
46230;SDS011;31949;51.404;-0.038;2024-03-29T00:28:24;11.65;;;3.53;;
46230;SDS011;31949;51.404;-0.038;2024-03-29T00:30:50;10.40;;;1.90;;
46230;SDS011;31949;51.404;-0.038;2024-03-29T00:33:16;14.07;;;2.42;;
46230;SDS011;31949;51.404;-0.038;2024-03-29T00:35:42;5.95;;;1.58;;
46230;SDS011;31949;51.404;-0.038;2024-03-29T00:38:08;9.68;;;2.55;;
46230;SDS011;31949;51.404;-0.038;2024-03-29T00:40:37;9.65;;;1.88;;
46230;SDS011;31949;51.404;-0.038;2024-03-29T00:43:03;11.98;;;2.10;;
46230;SDS011;31949;51.404;-0.038;2024-03-29T00:45:30;11.85;;;2.28;;
46230;SDS011;31949;51.404;-0.038;2024-03-29T00:47:56;7.72;;;1.83;;
46230;SDS011;31949;51.404;-0.038;2024-03-29T00:50:22;10.60;;;2.15;;
46230;SDS011;31949;51.404;-0.038;2024-03-29T00:52:49;10.93;;;2.13;;
46230;SDS011;31949;51.404;-0.038;2024-03-29T00:55:15;12.43;;;2.38;;
46230;SDS011;31949;51.404;-0.038;2024-03-29T00:57:42;10.23;;;2.28;;
46230;SDS011;31949;51.404;-0.038;2024-03-29T01:00:08;11.35;;;2.22;;
46230;SDS011;31949;51.404;-0.038;2024-03-29T01:02:35;13.90;;;1.88;;
46230;SDS011;31949;51.404;-0.038;2024-03-29T01:05:02;11.98;;;1.90;;
46230;SDS011;31949;51.404;-0.038;2024-03-29T01:07:29;10.77;;;3.35;;
46230;SDS011;31949;51.404;-0.038;2024-03-29T01:09:55;11.25;;;2.33;;
46230;SDS011;31949;51.404;-0.038;2024-03-29T01:12:22;12.75;;;1.70;;
46230;SDS011;31949;51.404;-0.038;2024-03-29T01:14:48;7.93;;;1.98;;
46230;SDS011;31949;51.404;-0.038;2024-03-29T01:17:14;7.47;;;2.45;;
46230;SDS011;31949;51.404;-0.038;2024-03-29T01:19:41;9.05;;;1.83;;
46230;SDS011;31949;51.404;-0.038;2024-03-29T01:22:07;12.07;;;2.28;;
46230;SDS011;31949;51.404;-0.038;2024-03-29T01:24:34;15.90;;;4.30;;
46230;SDS011;31949;51.404;-0.038;2024-03-29T01:27:00;10.48;;;1.73;;
46230;SDS011;31949;51.404;-0.038;2024-03-29T01:29:26;7.47;;;1.50;;
46230;SDS011;31949;51.404;-0.038;2024-03-29T01:31:52;6.20;;;1.25;;
46230;SDS011;31949;51.404;-0.038;2024-03-29T01:34:19;12.02;;;1.48;;
46230;SDS011;31949;51.404;-0.038;2024-03-29T01:36:45;6.82;;;1.30;;
46230;SDS011;31949;51.404;-0.038;2024-03-29T01:39:11;7.10;;;1.80;;
46230;SDS011;31949;51.404;-0.038;2024-03-29T01:41:40;5.97;;;1.45;;
46230;SDS011;31949;51.404;-0.038;2024-03-29T01:44:06;12.02;;;2.28;;
46230;SDS011;31949;51.404;-0.038;2024-03-29T01:46:33;5.72;;;1.40;;
46230;SDS011;31949;51.404;-0.038;2024-03-29T01:49:02;9.45;;;1.45;;
46230;SDS011;31949;51.404;-0.038;2024-03-29T01:51:30;7.72;;;1.48;;
46230;SDS011;31949;51.404;-0.038;2024-03-29T01:53:57;10.32;;;1.85;;
46230;SDS011;31949;51.404;-0.038;2024-03-29T01:56:24;3.70;;;1.48;;
46230;SDS011;31949;51.404;-0.038;2024-03-29T01:58:52;6.40;;;1.30;;
46230;SDS011;31949;51.404;-0.038;2024-03-29T02:01:20;6.80;;;1.60;;
46230;SDS011;31949;51.404;-0.038;2024-03-29T02:03:47;9.80;;;2.05;;
46230;SDS011;31949;51.404;-0.038;2024-03-29T02:06:14;6.95;;;1.33;;
46230;SDS011;31949;51.404;-0.038;2024-03-29T02:08:41;4.55;;;1.00;;
46230;SDS011;31949;51.404;-0.038;2024-03-29T02:11:08;7.97;;;1.40;;
46230;SDS011;31949;51.404;-0.038;2024-03-29T02:13:34;8.23;;;2.22;;
46230;SDS011;31949;51.404;-0.038;2024-03-29T02:16:00;4.93;;;1.30;;
46230;SDS011;31949;51.404;-0.038;2024-03-29T02:18:26;7.78;;;1.90;;
46230;SDS011;31949;51.404;-0.038;2024-03-29T02:20:53;5.80;;;1.20;;
46230;SDS011;31949;51.404;-0.038;2024-03-29T02:23:19;3.53;;;1.27;;
46230;SDS011;31949;51.404;-0.038;2024-03-29T02:25:49;6.18;;;1.27;;
46230;SDS011;31949;51.404;-0.038;2024-03-29T02:28:16;4.47;;;1.40;;
46230;SDS011;31949;51.404;-0.038;2024-03-29T02:30:42;5.25;;;1.25;;
46230;SDS011;31949;51.404;-0.038;2024-03-29T02:33:08;5.38;;;1.08;;
46230;SDS011;31949;51.404;-0.038;2024-03-29T02:35:34;3.67;;;1.60;;
46230;SDS011;31949;51.404;-0.038;2024-03-29T02:38:00;7.68;;;1.75;;
46230;SDS011;31949;51.404;-0.038;2024-03-29T02:40:27;4.88;;;1.63;;
46230;SDS011;31949;51.404;-0.038;2024-03-29T02:42:53;6.88;;;1.52;;
46230;SDS011;31949;51.404;-0.038;2024-03-29T02:45:19;5.07;;;1.48;;
46230;SDS011;31949;51.404;-0.038;2024-03-29T02:47:45;8.07;;;1.67;;
46230;SDS011;31949;51.404;-0.038;2024-03-29T02:50:12;9.02;;;1.63;;
46230;SDS011;31949;51.404;-0.038;2024-03-29T02:52:39;6.70;;;1.17;;
46230;SDS011;31949;51.404;-0.038;2024-03-29T02:55:05;12.43;;;1.55;;
46230;SDS011;31949;51.404;-0.038;2024-03-29T02:57:31;6.15;;;1.27;;
46230;SDS011;31949;51.404;-0.038;2024-03-29T02:59:58;9.00;;;2.50;;
46230;SDS011;31949;51.404;-0.038;2024-03-29T03:02:24;10.73;;;2.10;;
46230;SDS011;31949;51.404;-0.038;2024-03-29T03:04:50;6.95;;;1.33;;
46230;SDS011;31949;51.404;-0.038;2024-03-29T03:07:16;6.97;;;1.35;;
46230;SDS011;31949;51.404;-0.038;2024-03-29T03:10:01;4.15;;;1.08;;
46230;SDS011;31949;51.404;-0.038;2024-03-29T03:12:46;5.30;;;1.30;;
46230;SDS011;31949;51.404;-0.038;2024-03-29T03:15:12;2.50;;;0.80;;
46230;SDS011;31949;51.404;-0.038;2024-03-29T03:17:38;9.43;;;1.48;;
46230;SDS011;31949;51.404;-0.038;2024-03-29T03:20:04;3.38;;;0.88;;
46230;SDS011;31949;51.404;-0.038;2024-03-29T03:22:32;3.67;;;0.82;;
46230;SDS011;31949;51.404;-0.038;2024-03-29T03:24:58;5.75;;;0.93;;
46230;SDS011;31949;51.404;-0.038;2024-03-29T03:27:24;6.90;;;1.38;;
46230;SDS011;31949;51.404;-0.038;2024-03-29T03:29:50;6.22;;;1.05;;
46230;SDS011;31949;51.404;-0.038;2024-03-29T03:32:16;8.63;;;1.38;;
46230;SDS011;31949;51.404;-0.038;2024-03-29T03:34:43;7.10;;;1.25;;
46230;SDS011;31949;51.404;-0.038;2024-03-29T03:37:09;3.50;;;0.88;;
46230;SDS011;31949;51.404;-0.038;2024-03-29T03:39:36;5.63;;;1.30;;
46230;SDS011;31949;51.404;-0.038;2024-03-29T03:42:03;4.18;;;0.82;;
46230;SDS011;31949;51.404;-0.038;2024-03-29T03:44:29;7.85;;;1.00;;
46230;SDS011;31949;51.404;-0.038;2024-03-29T03:46:55;4.28;;;0.90;;
46230;SDS011;31949;51.404;-0.038;2024-03-29T03:49:21;7.50;;;1.20;;
46230;SDS011;31949;51.404;-0.038;2024-03-29T03:51:48;5.97;;;1.25;;
46230;SDS011;31949;51.404;-0.038;2024-03-29T03:54:14;2.70;;;0.98;;
46230;SDS011;31949;51.404;-0.038;2024-03-29T03:56:40;5.30;;;1.25;;
46230;SDS011;31949;51.404;-0.038;2024-03-29T03:59:06;2.63;;;0.77;;
46230;SDS011;31949;51.404;-0.038;2024-03-29T04:01:34;7.03;;;1.45;;
46230;SDS011;31949;51.404;-0.038;2024-03-29T04:04:00;2.08;;;0.55;;
46230;SDS011;31949;51.404;-0.038;2024-03-29T04:06:26;3.45;;;0.40;;
46230;SDS011;31949;51.404;-0.038;2024-03-29T04:08:53;3.13;;;0.88;;
46230;SDS011;31949;51.404;-0.038;2024-03-29T04:11:19;3.25;;;0.75;;
46230;SDS011;31949;51.404;-0.038;2024-03-29T04:13:45;1.88;;;0.50;;
46230;SDS011;31949;51.404;-0.038;2024-03-29T04:16:12;2.63;;;0.80;;
46230;SDS011;31949;51.404;-0.038;2024-03-29T04:18:38;0.50;;;0.40;;
46230;SDS011;31949;51.404;-0.038;2024-03-29T04:21:04;2.38;;;0.40;;
46230;SDS011;31949;51.404;-0.038;2024-03-29T04:23:30;2.22;;;0.60;;
46230;SDS011;31949;51.404;-0.038;2024-03-29T04:25:57;3.22;;;0.40;;
46230;SDS011;31949;51.404;-0.038;2024-03-29T04:28:24;2.05;;;0.50;;
46230;SDS011;31949;51.404;-0.038;2024-03-29T04:33:21;2.95;;;0.38;;
46230;SDS011;31949;51.404;-0.038;2024-03-29T04:36:01;2.63;;;1.73;;
46230;SDS011;31949;51.404;-0.038;2024-03-29T04:38:30;2.50;;;1.15;;
46230;SDS011;31949;51.404;-0.038;2024-03-29T04:40:57;1.60;;;0.60;;
46230;SDS011;31949;51.404;-0.038;2024-03-29T04:43:24;0.77;;;0.30;;
46230;SDS011;31949;51.404;-0.038;2024-03-29T04:46:01;0.85;;;0.40;;
46230;SDS011;31949;51.404;-0.038;2024-03-29T04:48:30;5.50;;;0.90;;
46230;SDS011;31949;51.404;-0.038;2024-03-29T04:50:57;1.95;;;0.40;;
46230;SDS011;31949;51.404;-0.038;2024-03-29T04:53:23;2.65;;;0.20;;
46230;SDS011;31949;51.404;-0.038;2024-03-29T04:55:55;1.48;;;0.38;;
46230;SDS011;31949;51.404;-0.038;2024-03-29T04:58:24;2.05;;;0.52;;
46230;SDS011;31949;51.404;-0.038;2024-03-29T05:00:54;1.10;;;0.28;;
46230;SDS011;31949;51.404;-0.038;2024-03-29T05:03:21;2.20;;;0.43;;
46230;SDS011;31949;51.404;-0.038;2024-03-29T05:05:49;1.85;;;0.43;;
46230;SDS011;31949;51.404;-0.038;2024-03-29T05:08:16;4.55;;;0.75;;
46230;SDS011;31949;51.404;-0.038;2024-03-29T05:10:44;4.10;;;0.65;;
46230;SDS011;31949;51.404;-0.038;2024-03-29T05:13:11;5.18;;;0.90;;
46230;SDS011;31949;51.404;-0.038;2024-03-29T05:15:37;2.60;;;0.95;;
46230;SDS011;31949;51.404;-0.038;2024-03-29T05:18:03;5.93;;;1.20;;
46230;SDS011;31949;51.404;-0.038;2024-03-29T05:20:30;4.70;;;0.90;;
46230;SDS011;31949;51.404;-0.038;2024-03-29T05:22:57;7.18;;;1.30;;
46230;SDS011;31949;51.404;-0.038;2024-03-29T05:25:24;8.65;;;2.30;;
46230;SDS011;31949;51.404;-0.038;2024-03-29T05:27:50;10.75;;;1.98;;
46230;SDS011;31949;51.404;-0.038;2024-03-29T05:30:17;9.43;;;2.47;;
46230;SDS011;31949;51.404;-0.038;2024-03-29T05:32:43;7.93;;;1.80;;
46230;SDS011;31949;51.404;-0.038;2024-03-29T05:35:10;6.32;;;1.63;;
46230;SDS011;31949;51.404;-0.038;2024-03-29T05:37:36;11.15;;;2.08;;
46230;SDS011;31949;51.404;-0.038;2024-03-29T05:40:03;15.10;;;1.92;;
46230;SDS011;31949;51.404;-0.038;2024-03-29T05:42:30;11.30;;;1.80;;
46230;SDS011;31949;51.404;-0.038;2024-03-29T05:44:58;7.57;;;1.75;;
46230;SDS011;31949;51.404;-0.038;2024-03-29T05:47:25;8.75;;;2.05;;
46230;SDS011;31949;51.404;-0.038;2024-03-29T05:49:51;9.57;;;1.77;;
46230;SDS011;31949;51.404;-0.038;2024-03-29T05:52:18;8.70;;;1.48;;
46230;SDS011;31949;51.404;-0.038;2024-03-29T05:54:44;6.10;;;1.38;;
46230;SDS011;31949;51.404;-0.038;2024-03-29T05:57:10;8.85;;;2.00;;
46230;SDS011;31949;51.404;-0.038;2024-03-29T05:59:37;7.68;;;1.80;;
46230;SDS011;31949;51.404;-0.038;2024-03-29T06:02:04;4.88;;;1.40;;
46230;SDS011;31949;51.404;-0.038;2024-03-29T06:04:30;7.22;;;1.52;;
46230;SDS011;31949;51.404;-0.038;2024-03-29T06:07:04;5.10;;;1.52;;
46230;SDS011;31949;51.404;-0.038;2024-03-29T06:09:30;8.15;;;1.90;;
46230;SDS011;31949;51.404;-0.038;2024-03-29T06:11:59;4.60;;;1.45;;
46230;SDS011;31949;51.404;-0.038;2024-03-29T06:14:25;5.20;;;1.30;;
46230;SDS011;31949;51.404;-0.038;2024-03-29T06:17:11;6.00;;;1.13;;
46230;SDS011;31949;51.404;-0.038;2024-03-29T06:19:53;11.98;;;2.00;;
46230;SDS011;31949;51.404;-0.038;2024-03-29T06:22:24;11.48;;;2.00;;
46230;SDS011;31949;51.404;-0.038;2024-03-29T06:24:50;6.63;;;1.75;;
46230;SDS011;31949;51.404;-0.038;2024-03-29T06:27:17;8.38;;;1.52;;
46230;SDS011;31949;51.404;-0.038;2024-03-29T06:29:46;4.82;;;1.70;;
46230;SDS011;31949;51.404;-0.038;2024-03-29T06:32:12;8.57;;;1.77;;
46230;SDS011;31949;51.404;-0.038;2024-03-29T06:34:39;10.45;;;2.00;;
46230;SDS011;31949;51.404;-0.038;2024-03-29T06:37:05;8.32;;;1.70;;
46230;SDS011;31949;51.404;-0.038;2024-03-29T06:39:33;9.25;;;2.10;;
46230;SDS011;31949;51.404;-0.038;2024-03-29T06:41:59;9.10;;;1.20;;
46230;SDS011;31949;51.404;-0.038;2024-03-29T06:44:25;7.30;;;1.20;;
46230;SDS011;31949;51.404;-0.038;2024-03-29T06:46:51;11.30;;;3.55;;
46230;SDS011;31949;51.404;-0.038;2024-03-29T06:49:17;4.65;;;1.55;;
46230;SDS011;31949;51.404;-0.038;2024-03-29T06:51:43;5.60;;;1.40;;
46230;SDS011;31949;51.404;-0.038;2024-03-29T06:54:09;10.27;;;1.67;;
46230;SDS011;31949;51.404;-0.038;2024-03-29T06:56:36;8.88;;;1.75;;
46230;SDS011;31949;51.404;-0.038;2024-03-29T06:59:02;4.45;;;1.08;;
46230;SDS011;31949;51.404;-0.038;2024-03-29T07:01:28;8.25;;;1.33;;
46230;SDS011;31949;51.404;-0.038;2024-03-29T07:03:54;3.33;;;0.77;;
46230;SDS011;31949;51.404;-0.038;2024-03-29T07:06:21;7.35;;;1.92;;
46230;SDS011;31949;51.404;-0.038;2024-03-29T07:08:47;7.90;;;1.15;;
46230;SDS011;31949;51.404;-0.038;2024-03-29T07:11:13;6.45;;;1.20;;
46230;SDS011;31949;51.404;-0.038;2024-03-29T07:13:40;17.35;;;2.15;;
46230;SDS011;31949;51.404;-0.038;2024-03-29T07:16:06;9.52;;;2.17;;
46230;SDS011;31949;51.404;-0.038;2024-03-29T07:18:35;2.75;;;1.05;;
46230;SDS011;31949;51.404;-0.038;2024-03-29T07:21:01;2.67;;;1.08;;
46230;SDS011;31949;51.404;-0.038;2024-03-29T07:23:27;4.80;;;0.95;;
46230;SDS011;31949;51.404;-0.038;2024-03-29T07:26:01;5.05;;;1.00;;
46230;SDS011;31949;51.404;-0.038;2024-03-29T07:28:28;3.40;;;1.10;;
46230;SDS011;31949;51.404;-0.038;2024-03-29T07:30:55;10.65;;;1.95;;
46230;SDS011;31949;51.404;-0.038;2024-03-29T07:33:22;8.32;;;1.23;;
46230;SDS011;31949;51.404;-0.038;2024-03-29T07:35:52;7.68;;;1.40;;
46230;SDS011;31949;51.404;-0.038;2024-03-29T07:38:19;4.68;;;1.30;;
46230;SDS011;31949;51.404;-0.038;2024-03-29T07:40:49;9.82;;;1.58;;
46230;SDS011;31949;51.404;-0.038;2024-03-29T07:43:17;8.77;;;1.67;;
46230;SDS011;31949;51.404;-0.038;2024-03-29T07:45:44;6.97;;;1.30;;
46230;SDS011;31949;51.404;-0.038;2024-03-29T07:48:11;3.78;;;1.00;;
46230;SDS011;31949;51.404;-0.038;2024-03-29T07:50:39;8.40;;;1.60;;
46230;SDS011;31949;51.404;-0.038;2024-03-29T07:53:06;5.95;;;1.52;;
46230;SDS011;31949;51.404;-0.038;2024-03-29T07:55:33;4.60;;;1.30;;
46230;SDS011;31949;51.404;-0.038;2024-03-29T07:58:01;9.20;;;1.38;;
46230;SDS011;31949;51.404;-0.038;2024-03-29T08:00:27;9.32;;;1.95;;
46230;SDS011;31949;51.404;-0.038;2024-03-29T08:02:53;7.90;;;1.55;;
46230;SDS011;31949;51.404;-0.038;2024-03-29T08:05:20;11.63;;;1.75;;
46230;SDS011;31949;51.404;-0.038;2024-03-29T08:07:46;7.07;;;1.20;;
46230;SDS011;31949;51.404;-0.038;2024-03-29T08:10:12;8.82;;;1.88;;
46230;SDS011;31949;51.404;-0.038;2024-03-29T08:12:39;9.63;;;1.60;;
46230;SDS011;31949;51.404;-0.038;2024-03-29T08:15:05;11.20;;;1.80;;
46230;SDS011;31949;51.404;-0.038;2024-03-29T08:17:31;6.93;;;1.27;;
46230;SDS011;31949;51.404;-0.038;2024-03-29T08:19:58;4.65;;;1.25;;
46230;SDS011;31949;51.404;-0.038;2024-03-29T08:22:24;6.22;;;1.42;;
46230;SDS011;31949;51.404;-0.038;2024-03-29T08:24:50;3.25;;;1.40;;
46230;SDS011;31949;51.404;-0.038;2024-03-29T08:27:16;6.78;;;1.25;;
46230;SDS011;31949;51.404;-0.038;2024-03-29T08:29:42;5.25;;;0.98;;
46230;SDS011;31949;51.404;-0.038;2024-03-29T08:32:09;8.13;;;1.88;;
46230;SDS011;31949;51.404;-0.038;2024-03-29T08:34:36;6.25;;;1.50;;
46230;SDS011;31949;51.404;-0.038;2024-03-29T08:37:02;5.38;;;1.27;;
46230;SDS011;31949;51.404;-0.038;2024-03-29T08:39:29;8.20;;;1.75;;
46230;SDS011;31949;51.404;-0.038;2024-03-29T08:41:57;3.15;;;0.90;;
46230;SDS011;31949;51.404;-0.038;2024-03-29T08:44:24;5.00;;;1.23;;
46230;SDS011;31949;51.404;-0.038;2024-03-29T08:46:51;4.55;;;1.65;;
46230;SDS011;31949;51.404;-0.038;2024-03-29T08:49:17;6.95;;;1.67;;
46230;SDS011;31949;51.404;-0.038;2024-03-29T08:51:44;10.25;;;2.58;;
46230;SDS011;31949;51.404;-0.038;2024-03-29T08:54:10;5.13;;;0.95;;
46230;SDS011;31949;51.404;-0.038;2024-03-29T08:56:36;5.85;;;1.13;;
46230;SDS011;31949;51.404;-0.038;2024-03-29T08:59:03;3.92;;;1.40;;
46230;SDS011;31949;51.404;-0.038;2024-03-29T09:01:33;8.35;;;1.58;;
46230;SDS011;31949;51.404;-0.038;2024-03-29T09:04:01;6.32;;;1.77;;
46230;SDS011;31949;51.404;-0.038;2024-03-29T09:06:29;4.22;;;1.17;;
46230;SDS011;31949;51.404;-0.038;2024-03-29T09:08:55;7.10;;;1.38;;
46230;SDS011;31949;51.404;-0.038;2024-03-29T09:11:21;8.40;;;1.33;;
46230;SDS011;31949;51.404;-0.038;2024-03-29T09:13:47;5.40;;;1.17;;
46230;SDS011;31949;51.404;-0.038;2024-03-29T09:16:13;3.08;;;1.00;;
46230;SDS011;31949;51.404;-0.038;2024-03-29T09:18:40;6.38;;;1.08;;
46230;SDS011;31949;51.404;-0.038;2024-03-29T09:21:06;5.00;;;1.00;;
46230;SDS011;31949;51.404;-0.038;2024-03-29T09:23:34;6.68;;;1.10;;
46230;SDS011;31949;51.404;-0.038;2024-03-29T09:26:03;2.90;;;0.80;;
46230;SDS011;31949;51.404;-0.038;2024-03-29T09:28:30;4.13;;;1.10;;
46230;SDS011;31949;51.404;-0.038;2024-03-29T09:30:57;4.60;;;1.20;;
46230;SDS011;31949;51.404;-0.038;2024-03-29T09:33:27;6.50;;;1.10;;
46230;SDS011;31949;51.404;-0.038;2024-03-29T09:35:54;4.55;;;1.05;;
46230;SDS011;31949;51.404;-0.038;2024-03-29T09:38:21;5.15;;;0.73;;
46230;SDS011;31949;51.404;-0.038;2024-03-29T09:40:48;3.58;;;0.70;;
46230;SDS011;31949;51.404;-0.038;2024-03-29T09:43:32;2.47;;;0.50;;
46230;SDS011;31949;51.404;-0.038;2024-03-29T09:45:59;2.83;;;0.95;;
46230;SDS011;31949;51.404;-0.038;2024-03-29T09:48:25;3.60;;;0.65;;
46230;SDS011;31949;51.404;-0.038;2024-03-29T09:50:53;5.07;;;0.70;;
46230;SDS011;31949;51.404;-0.038;2024-03-29T09:53:21;2.72;;;1.00;;
46230;SDS011;31949;51.404;-0.038;2024-03-29T09:55:48;3.38;;;0.82;;
46230;SDS011;31949;51.404;-0.038;2024-03-29T09:58:16;4.30;;;0.60;;
46230;SDS011;31949;51.404;-0.038;2024-03-29T10:00:42;1.40;;;0.60;;
46230;SDS011;31949;51.404;-0.038;2024-03-29T10:03:08;2.38;;;0.70;;
46230;SDS011;31949;51.404;-0.038;2024-03-29T10:05:35;3.28;;;0.52;;
46230;SDS011;31949;51.404;-0.038;2024-03-29T10:08:04;0.88;;;0.40;;
46230;SDS011;31949;51.404;-0.038;2024-03-29T10:10:32;1.85;;;0.60;;
46230;SDS011;31949;51.404;-0.038;2024-03-29T10:12:59;2.70;;;0.60;;
46230;SDS011;31949;51.404;-0.038;2024-03-29T10:15:25;3.80;;;0.85;;
46230;SDS011;31949;51.404;-0.038;2024-03-29T10:17:56;4.80;;;0.70;;
46230;SDS011;31949;51.404;-0.038;2024-03-29T10:20:22;6.20;;;1.30;;
46230;SDS011;31949;51.404;-0.038;2024-03-29T10:22:49;4.78;;;1.00;;
46230;SDS011;31949;51.404;-0.038;2024-03-29T10:25:15;6.80;;;1.20;;
46230;SDS011;31949;51.404;-0.038;2024-03-29T10:27:42;5.78;;;1.60;;
46230;SDS011;31949;51.404;-0.038;2024-03-29T10:30:08;11.73;;;2.30;;
46230;SDS011;31949;51.404;-0.038;2024-03-29T10:32:39;9.48;;;1.30;;
46230;SDS011;31949;51.404;-0.038;2024-03-29T10:35:08;6.45;;;1.17;;
46230;SDS011;31949;51.404;-0.038;2024-03-29T10:37:38;5.68;;;1.50;;
46230;SDS011;31949;51.404;-0.038;2024-03-29T10:40:09;5.65;;;2.50;;
46230;SDS011;31949;51.404;-0.038;2024-03-29T10:42:39;7.82;;;1.77;;
46230;SDS011;31949;51.404;-0.038;2024-03-29T10:45:06;6.40;;;2.25;;
46230;SDS011;31949;51.404;-0.038;2024-03-29T10:47:33;6.05;;;1.80;;
46230;SDS011;31949;51.404;-0.038;2024-03-29T10:50:00;9.50;;;2.55;;
46230;SDS011;31949;51.404;-0.038;2024-03-29T10:52:26;10.70;;;2.97;;
46230;SDS011;31949;51.404;-0.038;2024-03-29T10:54:53;10.30;;;2.72;;
46230;SDS011;31949;51.404;-0.038;2024-03-29T10:57:23;12.23;;;1.92;;
46230;SDS011;31949;51.404;-0.038;2024-03-29T11:02:31;8.88;;;2.10;;
46230;SDS011;31949;51.404;-0.038;2024-03-29T11:05:06;8.35;;;1.98;;
46230;SDS011;31949;51.404;-0.038;2024-03-29T11:07:37;12.65;;;2.00;;
46230;SDS011;31949;51.404;-0.038;2024-03-29T11:10:06;10.87;;;2.00;;
46230;SDS011;31949;51.404;-0.038;2024-03-29T11:15:37;6.95;;;2.05;;
46230;SDS011;31949;51.404;-0.038;2024-03-29T11:18:06;6.85;;;1.83;;
46230;SDS011;31949;51.404;-0.038;2024-03-29T11:20:34;10.02;;;2.53;;
46230;SDS011;31949;51.404;-0.038;2024-03-29T11:23:07;7.75;;;1.88;;
46230;SDS011;31949;51.404;-0.038;2024-03-29T11:25:39;5.43;;;1.52;;
46230;SDS011;31949;51.404;-0.038;2024-03-29T11:28:22;11.90;;;2.20;;
46230;SDS011;31949;51.404;-0.038;2024-03-29T11:31:03;5.57;;;1.25;;
46230;SDS011;31949;51.404;-0.038;2024-03-29T11:36:10;10.90;;;1.92;;
46230;SDS011;31949;51.404;-0.038;2024-03-29T11:38:38;9.77;;;1.77;;
46230;SDS011;31949;51.404;-0.038;2024-03-29T11:41:15;7.07;;;1.45;;
46230;SDS011;31949;51.404;-0.038;2024-03-29T11:43:42;14.93;;;2.50;;
46230;SDS011;31949;51.404;-0.038;2024-03-29T11:46:10;5.28;;;1.80;;
46230;SDS011;31949;51.404;-0.038;2024-03-29T11:48:37;11.35;;;1.70;;
46230;SDS011;31949;51.404;-0.038;2024-03-29T11:51:04;10.25;;;1.45;;
46230;SDS011;31949;51.404;-0.038;2024-03-29T11:53:32;5.57;;;1.52;;
46230;SDS011;31949;51.404;-0.038;2024-03-29T11:55:59;9.05;;;1.75;;
46230;SDS011;31949;51.404;-0.038;2024-03-29T11:58:26;7.53;;;1.73;;
46230;SDS011;31949;51.404;-0.038;2024-03-29T12:00:54;6.95;;;2.17;;
46230;SDS011;31949;51.404;-0.038;2024-03-29T12:03:22;8.52;;;1.63;;
46230;SDS011;31949;51.404;-0.038;2024-03-29T12:05:50;4.50;;;1.08;;
46230;SDS011;31949;51.404;-0.038;2024-03-29T12:08:20;4.55;;;1.92;;
46230;SDS011;31949;51.404;-0.038;2024-03-29T12:10:47;7.40;;;1.33;;
46230;SDS011;31949;51.404;-0.038;2024-03-29T12:13:15;6.05;;;1.50;;
46230;SDS011;31949;51.404;-0.038;2024-03-29T12:15:42;11.52;;;1.65;;
46230;SDS011;31949;51.404;-0.038;2024-03-29T12:18:09;6.45;;;1.77;;
46230;SDS011;31949;51.404;-0.038;2024-03-29T12:20:35;5.13;;;1.63;;
46230;SDS011;31949;51.404;-0.038;2024-03-29T12:23:06;6.07;;;1.27;;
46230;SDS011;31949;51.404;-0.038;2024-03-29T12:25:35;4.15;;;1.13;;
46230;SDS011;31949;51.404;-0.038;2024-03-29T12:28:03;7.68;;;1.70;;
46230;SDS011;31949;51.404;-0.038;2024-03-29T12:30:29;10.63;;;2.13;;
46230;SDS011;31949;51.404;-0.038;2024-03-29T12:33:02;4.78;;;1.65;;
46230;SDS011;31949;51.404;-0.038;2024-03-29T12:35:29;7.53;;;1.92;;
46230;SDS011;31949;51.404;-0.038;2024-03-29T12:37:57;9.25;;;1.65;;
46230;SDS011;31949;51.404;-0.038;2024-03-29T12:40:29;4.80;;;1.15;;
46230;SDS011;31949;51.404;-0.038;2024-03-29T12:43:04;7.32;;;1.55;;
46230;SDS011;31949;51.404;-0.038;2024-03-29T12:45:31;4.15;;;0.95;;
46230;SDS011;31949;51.404;-0.038;2024-03-29T12:47:57;3.97;;;1.10;;
46230;SDS011;31949;51.404;-0.038;2024-03-29T12:52:56;6.22;;;1.67;;
46230;SDS011;31949;51.404;-0.038;2024-03-29T12:55:24;6.65;;;1.60;;
46230;SDS011;31949;51.404;-0.038;2024-03-29T12:57:53;10.35;;;1.50;;
46230;SDS011;31949;51.404;-0.038;2024-03-29T13:00:20;4.80;;;1.25;;
46230;SDS011;31949;51.404;-0.038;2024-03-29T13:02:46;5.35;;;1.52;;
46230;SDS011;31949;51.404;-0.038;2024-03-29T13:05:12;5.32;;;1.33;;
46230;SDS011;31949;51.404;-0.038;2024-03-29T13:07:39;5.50;;;1.33;;
46230;SDS011;31949;51.404;-0.038;2024-03-29T13:10:05;6.22;;;1.30;;
46230;SDS011;31949;51.404;-0.038;2024-03-29T13:12:39;5.32;;;1.60;;
46230;SDS011;31949;51.404;-0.038;2024-03-29T13:15:16;9.73;;;2.13;;
46230;SDS011;31949;51.404;-0.038;2024-03-29T13:17:49;3.50;;;1.50;;
46230;SDS011;31949;51.404;-0.038;2024-03-29T13:20:15;5.78;;;1.80;;
46230;SDS011;31949;51.404;-0.038;2024-03-29T13:22:42;5.68;;;1.65;;
46230;SDS011;31949;51.404;-0.038;2024-03-29T13:25:12;5.85;;;1.20;;
46230;SDS011;31949;51.404;-0.038;2024-03-29T13:27:39;4.55;;;1.30;;
46230;SDS011;31949;51.404;-0.038;2024-03-29T13:30:06;6.85;;;1.85;;
46230;SDS011;31949;51.404;-0.038;2024-03-29T13:32:34;6.90;;;1.58;;
46230;SDS011;31949;51.404;-0.038;2024-03-29T13:35:01;5.95;;;1.20;;
46230;SDS011;31949;51.404;-0.038;2024-03-29T13:37:31;3.08;;;1.50;;
46230;SDS011;31949;51.404;-0.038;2024-03-29T13:39:58;4.60;;;1.10;;
46230;SDS011;31949;51.404;-0.038;2024-03-29T13:42:24;4.75;;;1.23;;
46230;SDS011;31949;51.404;-0.038;2024-03-29T13:44:50;4.13;;;1.10;;
46230;SDS011;31949;51.404;-0.038;2024-03-29T13:47:17;5.18;;;0.90;;
46230;SDS011;31949;51.404;-0.038;2024-03-29T13:49:44;5.30;;;1.00;;
46230;SDS011;31949;51.404;-0.038;2024-03-29T13:52:14;5.80;;;1.55;;
46230;SDS011;31949;51.404;-0.038;2024-03-29T13:54:44;4.35;;;1.42;;
46230;SDS011;31949;51.404;-0.038;2024-03-29T13:57:15;6.80;;;1.25;;
46230;SDS011;31949;51.404;-0.038;2024-03-29T13:59:46;4.88;;;1.13;;
46230;SDS011;31949;51.404;-0.038;2024-03-29T14:02:13;4.80;;;1.00;;
46230;SDS011;31949;51.404;-0.038;2024-03-29T14:04:41;4.30;;;1.35;;
46230;SDS011;31949;51.404;-0.038;2024-03-29T14:07:09;6.57;;;1.02;;
46230;SDS011;31949;51.404;-0.038;2024-03-29T14:09:42;5.13;;;0.93;;
46230;SDS011;31949;51.404;-0.038;2024-03-29T14:12:12;6.70;;;1.45;;
46230;SDS011;31949;51.404;-0.038;2024-03-29T14:14:39;6.30;;;1.50;;
46230;SDS011;31949;51.404;-0.038;2024-03-29T14:17:07;6.07;;;1.20;;
46230;SDS011;31949;51.404;-0.038;2024-03-29T14:19:34;2.95;;;0.85;;
46230;SDS011;31949;51.404;-0.038;2024-03-29T14:22:01;6.43;;;1.27;;
46230;SDS011;31949;51.404;-0.038;2024-03-29T14:24:29;4.32;;;1.23;;
46230;SDS011;31949;51.404;-0.038;2024-03-29T14:26:57;5.53;;;1.70;;
46230;SDS011;31949;51.404;-0.038;2024-03-29T14:29:24;5.78;;;1.45;;
46230;SDS011;31949;51.404;-0.038;2024-03-29T14:31:50;8.48;;;1.60;;
46230;SDS011;31949;51.404;-0.038;2024-03-29T14:34:18;7.40;;;1.33;;
46230;SDS011;31949;51.404;-0.038;2024-03-29T14:36:45;5.68;;;1.45;;
46230;SDS011;31949;51.404;-0.038;2024-03-29T14:39:11;6.10;;;1.02;;
46230;SDS011;31949;51.404;-0.038;2024-03-29T14:41:41;5.20;;;1.60;;
46230;SDS011;31949;51.404;-0.038;2024-03-29T14:44:08;6.13;;;1.63;;
46230;SDS011;31949;51.404;-0.038;2024-03-29T14:46:35;6.65;;;1.38;;
46230;SDS011;31949;51.404;-0.038;2024-03-29T14:49:01;8.00;;;2.17;;